createdAt,value
2023-04-08T00:00:57.546Z,9.28
2023-04-08T00:03:25.671Z,9.25
2023-04-08T00:05:53.804Z,9.19
2023-04-08T00:08:21.976Z,9.15
2023-04-08T00:10:51.495Z,9.13
2023-04-08T00:13:19.554Z,9.08
2023-04-08T00:15:47.787Z,9.10
2023-04-08T00:18:16.355Z,9.08
2023-04-08T00:20:44.761Z,9.08
2023-04-08T00:23:12.853Z,9.05
2023-04-08T00:25:41.016Z,9.02
2023-04-08T00:28:10.489Z,9.02
2023-04-08T00:30:38.579Z,8.96
2023-04-08T00:33:07.154Z,8.96
2023-04-08T00:35:35.367Z,8.92
2023-04-08T00:38:03.491Z,8.87
2023-04-08T00:40:31.597Z,8.86
2023-04-08T00:42:59.733Z,8.86
2023-04-08T00:45:29.292Z,8.83
2023-04-08T00:47:58.141Z,8.81
2023-04-08T00:50:26.454Z,8.80
2023-04-08T00:52:54.633Z,8.78
2023-04-08T00:55:23.109Z,8.75
2023-04-08T00:57:51.327Z,8.74
2023-04-08T01:00:19.486Z,8.72
2023-04-08T01:02:52.833Z,8.72
2023-04-08T01:05:25.663Z,8.69
2023-04-08T01:07:54.038Z,8.66
2023-04-08T01:10:23.493Z,8.63
2023-04-08T01:12:55.476Z,8.62
2023-04-08T01:15:23.925Z,8.60
2023-04-08T01:17:55.296Z,8.59
2023-04-08T01:20:23.845Z,8.57
2023-04-08T01:23:04.925Z,8.51
2023-04-08T01:25:34.499Z,8.50
2023-04-08T01:28:06.593Z,8.49
2023-04-08T01:30:35.625Z,8.46
2023-04-08T01:33:05.480Z,8.44
2023-04-08T01:35:34.348Z,8.44
2023-04-08T01:38:02.845Z,8.39
2023-04-08T01:40:31.365Z,8.36
2023-04-08T01:43:00.333Z,8.35
2023-04-08T01:45:30.154Z,8.32
2023-04-08T01:47:59.837Z,8.31
2023-04-08T01:50:28.873Z,8.30
2023-04-08T01:52:57.421Z,8.28
2023-04-08T01:55:26.098Z,8.28
2023-04-08T01:57:54.372Z,8.26
2023-04-08T02:00:24.321Z,8.24
2023-04-08T02:02:54.852Z,8.21
2023-04-08T02:05:23.116Z,8.19
2023-04-08T02:07:52.155Z,8.14
2023-04-08T02:10:21.658Z,8.13
2023-04-08T02:12:49.898Z,8.12
2023-04-08T02:15:18.304Z,8.09
2023-04-08T02:17:47.734Z,8.07
2023-04-08T02:20:19.091Z,8.06
2023-04-08T02:22:49.840Z,8.04
2023-04-08T02:25:19.070Z,8.02
2023-04-08T02:27:49.442Z,7.97
2023-04-08T02:30:18.700Z,7.98
2023-04-08T02:32:49.200Z,7.96
2023-04-08T02:35:19.624Z,7.93
2023-04-08T02:37:48.913Z,7.91
2023-04-08T02:40:24.812Z,7.87
2023-04-08T02:42:52.852Z,7.86
2023-04-08T02:45:21.058Z,7.86
2023-04-08T02:47:51.626Z,7.82
2023-04-08T02:50:21.172Z,7.82
2023-04-08T02:52:49.433Z,7.80
2023-04-08T02:55:17.808Z,7.78
2023-04-08T02:57:46.058Z,7.77
2023-04-08T03:00:14.779Z,7.76
2023-04-08T03:02:43.183Z,7.74
2023-04-08T03:05:11.577Z,7.72
2023-04-08T03:07:40.981Z,7.71
2023-04-08T03:10:09.756Z,7.68
2023-04-08T03:12:37.897Z,7.69
2023-04-08T03:15:06.381Z,7.67
2023-04-08T03:17:34.846Z,7.66
2023-04-08T03:20:05.073Z,7.65
2023-04-08T03:22:33.292Z,7.63
2023-04-08T03:25:02.913Z,7.60
2023-04-08T03:27:31.151Z,7.59
2023-04-08T03:29:59.302Z,7.58
2023-04-08T03:32:27.598Z,7.57
2023-04-08T03:34:55.971Z,7.54
2023-04-08T03:37:24.230Z,7.53
2023-04-08T03:39:52.294Z,7.52
2023-04-08T03:42:21.784Z,7.50
2023-04-08T03:44:49.924Z,7.49
2023-04-08T03:47:17.949Z,7.50
2023-04-08T03:49:46.111Z,7.52
2023-04-08T03:52:14.262Z,7.51
2023-04-08T03:54:42.343Z,7.52
2023-04-08T03:57:12.122Z,7.51
2023-04-08T03:59:41.632Z,7.52
2023-04-08T04:02:10.000Z,7.51
2023-04-08T04:04:38.320Z,7.50
2023-04-08T04:07:06.368Z,7.53
2023-04-08T04:09:34.545Z,7.52
2023-04-08T04:12:02.788Z,7.50
2023-04-08T04:14:31.044Z,7.49
2023-04-08T04:17:02.582Z,7.49
2023-04-08T04:19:31.455Z,7.50
2023-04-08T04:21:59.644Z,7.48
2023-04-08T04:24:27.811Z,7.48
2023-04-08T04:26:56.131Z,7.50
2023-04-08T04:29:24.271Z,7.49
2023-04-08T04:31:52.431Z,7.50
2023-04-08T04:34:21.972Z,7.51
2023-04-08T04:36:49.986Z,7.53
2023-04-08T04:39:18.059Z,7.51
2023-04-08T04:41:47.434Z,7.49
2023-04-08T04:44:16.134Z,7.42
2023-04-08T04:46:44.367Z,7.46
2023-04-08T04:49:12.509Z,7.44
2023-04-08T04:51:42.512Z,7.47
2023-04-08T04:54:10.605Z,7.51
2023-04-08T04:56:38.665Z,7.48
2023-04-08T04:59:06.884Z,7.48
2023-04-08T05:01:34.945Z,7.51
2023-04-08T05:04:03.033Z,7.55
2023-04-08T05:06:31.078Z,7.63
2023-04-08T05:09:00.528Z,7.66
2023-04-08T05:11:28.498Z,7.73
2023-04-08T05:13:56.624Z,7.72
2023-04-08T05:16:24.880Z,7.76
2023-04-08T05:18:53.236Z,7.83
2023-04-08T05:21:21.403Z,7.90
2023-04-08T05:23:51.127Z,7.98
2023-04-08T05:26:21.839Z,8.03
2023-04-08T05:28:50.246Z,8.08
2023-04-08T05:31:18.552Z,8.14
2023-04-08T05:33:46.687Z,8.24
2023-04-08T05:36:15.498Z,8.31
2023-04-08T05:38:44.499Z,8.38
2023-04-08T05:41:12.713Z,8.46
2023-04-08T05:43:42.184Z,8.50
2023-04-08T05:46:10.673Z,8.56
2023-04-08T05:48:38.859Z,8.63
2023-04-08T05:51:07.056Z,8.64
2023-04-08T05:53:35.170Z,8.68
2023-04-08T05:56:03.175Z,8.73
2023-04-08T05:58:31.524Z,8.83
2023-04-08T06:01:01.040Z,8.91
2023-04-08T06:03:29.436Z,8.93
2023-04-08T06:05:57.664Z,8.98
2023-04-08T06:08:25.873Z,9.06
2023-04-08T06:10:54.025Z,9.17
2023-04-08T06:13:22.257Z,9.24
2023-04-08T06:15:50.485Z,9.33
2023-04-08T06:18:19.966Z,9.43
2023-04-08T06:20:48.153Z,9.49
2023-04-08T06:23:16.573Z,9.55
2023-04-08T06:25:44.671Z,9.66
2023-04-08T06:28:12.700Z,9.70
2023-04-08T06:30:40.881Z,9.76
2023-04-08T06:33:09.606Z,9.81
2023-04-08T06:35:39.203Z,9.92
2023-04-08T06:38:07.302Z,9.99
2023-04-08T06:40:35.430Z,10.10
2023-04-08T06:43:03.564Z,10.18
2023-04-08T06:45:37.470Z,10.30
2023-04-08T06:48:06.934Z,10.39
2023-04-08T06:50:35.156Z,10.48
2023-04-08T06:53:04.767Z,10.60
2023-04-08T06:55:32.839Z,10.68
2023-04-08T06:58:02.227Z,10.76
2023-04-08T07:00:30.439Z,10.88
2023-04-08T07:02:58.642Z,11.00
2023-04-08T07:05:26.768Z,11.11
2023-04-08T07:07:54.838Z,11.22
2023-04-08T07:10:24.410Z,11.32
2023-04-08T07:12:52.720Z,11.43
2023-04-08T07:15:20.803Z,11.56
2023-04-08T07:17:48.898Z,11.66
2023-04-08T07:20:17.100Z,11.73
2023-04-08T07:22:45.231Z,11.83
2023-04-08T07:25:13.393Z,11.92
2023-04-08T07:27:42.875Z,12.07
2023-04-08T07:30:11.203Z,12.21
2023-04-08T07:32:39.464Z,12.37
2023-04-08T07:35:07.766Z,12.52
2023-04-08T07:37:35.948Z,12.66
2023-04-08T07:40:03.985Z,12.79
2023-04-08T07:42:32.034Z,12.98
2023-04-08T07:45:01.511Z,13.16
2023-04-08T07:47:30.524Z,13.39
2023-04-08T07:49:58.645Z,13.58
2023-04-08T07:52:26.713Z,13.85
2023-04-08T07:54:54.694Z,14.08
2023-04-08T07:57:22.993Z,14.34
2023-04-08T07:59:51.379Z,14.55
2023-04-08T08:02:20.996Z,14.75
2023-04-08T08:04:49.232Z,14.96
2023-04-08T08:07:17.345Z,15.21
2023-04-08T08:09:45.426Z,15.55
2023-04-08T08:12:13.504Z,15.73
2023-04-08T08:14:41.674Z,16.06
2023-04-08T08:17:09.775Z,16.36
2023-04-08T08:19:39.245Z,16.52
2023-04-08T08:22:07.491Z,16.79
2023-04-08T08:24:35.576Z,16.96
2023-04-08T08:27:05.240Z,17.26
2023-04-08T08:29:33.506Z,17.42
2023-04-08T08:32:01.617Z,17.78
2023-04-08T08:34:29.639Z,18.11
2023-04-08T08:36:59.150Z,18.52
2023-04-08T08:39:27.206Z,18.95
2023-04-08T08:41:56.877Z,19.44
2023-04-08T08:44:24.935Z,20.09
2023-04-08T08:46:53.189Z,20.56
2023-04-08T08:49:21.369Z,21.28
2023-04-08T08:51:50.741Z,21.74
2023-04-08T08:54:20.131Z,22.12
2023-04-08T08:56:49.158Z,22.59
2023-04-08T08:59:19.724Z,23.35
2023-04-08T09:01:47.928Z,24.11
2023-04-08T09:04:18.587Z,24.73
2023-04-08T09:06:48.892Z,25.16
2023-04-08T09:09:17.340Z,25.34
2023-04-08T09:11:47.581Z,24.91
2023-04-08T09:14:19.758Z,24.73
2023-04-08T09:16:48.104Z,24.96
2023-04-08T09:19:16.420Z,25.35
2023-04-08T09:21:44.616Z,25.36
2023-04-08T09:24:30.083Z,25.55
2023-04-08T09:26:59.844Z,25.75
2023-04-08T09:29:32.251Z,25.23
2023-04-08T09:32:03.153Z,24.60
2023-04-08T09:34:34.293Z,25.11
2023-04-08T09:37:02.646Z,25.04
2023-04-08T09:39:31.047Z,25.24
2023-04-08T09:42:02.208Z,25.38
2023-04-08T09:44:31.664Z,25.71
2023-04-08T09:47:03.265Z,26.05
2023-04-08T09:49:35.313Z,26.61
2023-04-08T09:52:08.271Z,26.57
2023-04-08T09:54:42.150Z,25.96
2023-04-08T09:57:14.982Z,25.16
2023-04-08T09:59:46.819Z,24.73
2023-04-08T10:02:18.366Z,23.89
2023-04-08T10:04:50.364Z,22.90
2023-04-08T10:07:19.365Z,22.95
2023-04-08T10:09:47.507Z,23.15
2023-04-08T10:12:17.177Z,23.02
2023-04-08T10:15:14.311Z,23.16
2023-04-08T10:17:42.381Z,22.72
2023-04-08T10:20:33.352Z,22.58
2023-04-08T10:23:01.951Z,22.43
2023-04-08T10:25:30.819Z,22.58
2023-04-08T10:28:00.822Z,22.61
2023-04-08T10:30:42.020Z,23.31
2023-04-08T10:33:14.552Z,24.43
2023-04-08T10:35:43.722Z,25.02
2023-04-08T10:38:13.417Z,25.91
2023-04-08T10:40:42.955Z,26.02
2023-04-08T10:43:12.831Z,26.12
2023-04-08T10:45:41.870Z,26.25
2023-04-08T10:48:13.687Z,26.82
2023-04-08T10:50:42.215Z,26.91
2023-04-08T10:53:11.349Z,27.45
2023-04-08T10:55:39.775Z,27.89
2023-04-08T10:58:08.804Z,27.29
2023-04-08T11:00:38.827Z,26.86
2023-04-08T11:03:07.900Z,26.62
2023-04-08T11:05:37.130Z,26.89
2023-04-08T11:08:05.841Z,26.97
2023-04-08T11:10:37.959Z,27.59
2023-04-08T11:13:07.634Z,28.01
2023-04-08T11:15:36.538Z,28.09
2023-04-08T11:18:06.689Z,27.93
2023-04-08T11:20:37.273Z,27.36
2023-04-08T11:23:05.352Z,27.03
2023-04-08T11:25:33.730Z,26.84
2023-04-08T11:28:01.874Z,26.83
2023-04-08T11:30:31.239Z,26.87
2023-04-08T11:32:59.475Z,26.76
2023-04-08T11:35:31.599Z,26.53
2023-04-08T11:37:59.922Z,26.06
2023-04-08T11:40:28.434Z,26.11
2023-04-08T11:42:56.681Z,25.58
2023-04-08T11:45:24.808Z,25.71
2023-04-08T11:47:53.136Z,25.65
2023-04-08T11:50:24.383Z,25.29
2023-04-08T11:52:55.496Z,25.14
2023-04-08T11:55:24.744Z,24.90
2023-04-08T11:57:53.278Z,24.59
2023-04-08T12:00:21.733Z,24.07
2023-04-08T12:02:50.326Z,23.72
2023-04-08T12:05:18.730Z,23.20
2023-04-08T12:07:47.406Z,22.71
2023-04-08T12:10:16.887Z,22.65
2023-04-08T12:12:44.962Z,22.28
2023-04-08T12:15:13.121Z,21.71
2023-04-08T12:17:41.219Z,21.41
2023-04-08T12:20:09.769Z,21.33
2023-04-08T12:22:37.922Z,21.14
2023-04-08T12:25:06.512Z,20.99
2023-04-08T12:27:36.163Z,20.44
2023-04-08T12:30:04.517Z,20.13
2023-04-08T12:32:32.596Z,19.80
2023-04-08T12:35:00.725Z,19.80
2023-04-08T12:37:28.912Z,19.76
2023-04-08T12:39:57.001Z,19.64
2023-04-08T12:42:25.055Z,19.36
2023-04-08T12:44:54.783Z,19.11
2023-04-08T12:47:24.914Z,19.10
2023-04-08T12:49:54.200Z,19.11
2023-04-08T12:52:23.052Z,19.15
2023-04-08T12:54:51.171Z,19.21
2023-04-08T12:57:19.274Z,19.17
2023-04-08T12:59:47.868Z,19.18
2023-04-08T13:02:17.450Z,19.12
2023-04-08T13:04:45.692Z,19.10
2023-04-08T13:07:13.797Z,19.12
2023-04-08T13:09:42.398Z,19.05
2023-04-08T13:12:12.322Z,18.94
2023-04-08T13:14:40.478Z,18.93
2023-04-08T13:17:08.672Z,18.80
2023-04-08T13:19:38.101Z,18.58
2023-04-08T13:22:06.239Z,18.69
2023-04-08T13:24:34.341Z,18.69
2023-04-08T13:27:02.731Z,18.63
2023-04-08T13:29:30.855Z,18.64
2023-04-08T13:31:59.043Z,18.59
2023-04-08T13:34:27.095Z,18.50
2023-04-08T13:36:57.472Z,18.54
2023-04-08T13:39:25.611Z,18.54
2023-04-08T13:41:53.768Z,18.45
2023-04-08T13:44:22.066Z,18.46
2023-04-08T13:46:50.068Z,18.42
2023-04-08T13:49:18.126Z,18.33
2023-04-08T13:51:46.284Z,18.00
2023-04-08T13:54:15.813Z,18.02
2023-04-08T13:56:43.821Z,17.94
2023-04-08T13:59:11.819Z,17.92
2023-04-08T14:01:40.875Z,17.83
2023-04-08T14:04:09.207Z,17.74
2023-04-08T14:06:37.394Z,17.67
2023-04-08T14:09:06.122Z,17.68
2023-04-08T14:11:37.416Z,17.71
2023-04-08T14:14:06.684Z,17.76
2023-04-08T14:16:35.994Z,17.81
2023-04-08T14:19:04.450Z,17.79
2023-04-08T14:21:33.104Z,17.81
2023-04-08T14:24:02.725Z,17.83
2023-04-08T14:26:33.332Z,17.84
2023-04-08T14:29:02.734Z,17.86
2023-04-08T14:31:30.897Z,17.86
2023-04-08T14:33:58.975Z,17.84
2023-04-08T14:36:28.071Z,17.75
2023-04-08T14:38:56.694Z,17.64
2023-04-08T14:41:26.499Z,17.62
2023-04-08T14:43:54.748Z,17.53
2023-04-08T14:46:25.387Z,17.18
2023-04-08T14:48:55.256Z,17.09
2023-04-08T14:51:23.293Z,17.02
2023-04-08T14:53:51.459Z,16.88
2023-04-08T14:56:19.615Z,16.83
2023-04-08T14:58:47.777Z,16.75
2023-04-08T15:01:16.036Z,16.65
2023-04-08T15:03:45.603Z,16.60
2023-04-08T15:06:17.069Z,16.62
2023-04-08T15:08:45.931Z,16.68
2023-04-08T15:11:14.057Z,16.65
2023-04-08T15:13:42.106Z,16.55
2023-04-08T15:16:10.190Z,16.56
2023-04-08T15:18:38.403Z,16.64
2023-04-08T15:21:07.912Z,16.65
2023-04-08T15:23:36.060Z,16.62
2023-04-08T15:26:04.266Z,16.63
2023-04-08T15:28:33.031Z,16.63
2023-04-08T15:31:01.861Z,16.64
2023-04-08T15:33:30.016Z,16.61
2023-04-08T15:35:59.837Z,16.55
2023-04-08T15:38:29.336Z,16.55
2023-04-08T15:40:57.443Z,16.37
2023-04-08T15:43:25.540Z,16.40
2023-04-08T15:45:53.712Z,16.38
2023-04-08T15:48:21.806Z,16.35
2023-04-08T15:50:49.889Z,16.32
2023-04-08T15:53:18.043Z,16.31
2023-04-08T15:55:47.591Z,16.27
2023-04-08T15:58:16.511Z,16.30
2023-04-08T16:00:44.677Z,16.27
2023-04-08T16:03:13.037Z,16.28
2023-04-08T16:05:41.799Z,16.29
2023-04-08T16:08:10.157Z,16.26
2023-04-08T16:10:38.699Z,16.24
2023-04-08T16:13:08.221Z,16.21
2023-04-08T16:15:36.473Z,16.20
2023-04-08T16:18:04.831Z,16.15
2023-04-08T16:20:33.349Z,16.03
2023-04-08T16:23:01.462Z,15.97
2023-04-08T16:25:29.668Z,15.85
2023-04-08T16:27:57.850Z,15.78
2023-04-08T16:30:27.452Z,15.64
2023-04-08T16:32:55.830Z,15.60
2023-04-08T16:35:23.958Z,15.47
2023-04-08T16:37:52.167Z,15.38
2023-04-08T16:40:20.634Z,15.34
2023-04-08T16:42:49.036Z,15.32
2023-04-08T16:45:17.239Z,15.30
2023-04-08T16:47:46.903Z,15.29
2023-04-08T16:50:15.037Z,15.27
2023-04-08T16:52:49.462Z,15.24
2023-04-08T16:55:17.760Z,15.21
2023-04-08T16:57:46.018Z,15.21
2023-04-08T17:00:14.518Z,15.11
2023-04-08T17:02:42.945Z,15.09
2023-04-08T17:05:12.693Z,15.07
2023-04-08T17:07:40.780Z,15.09
2023-04-08T17:10:09.767Z,15.08
2023-04-08T17:12:38.092Z,15.04
2023-04-08T17:15:06.693Z,15.00
2023-04-08T17:17:34.850Z,14.96
2023-04-08T17:20:03.036Z,14.88
2023-04-08T17:22:32.997Z,14.85
2023-04-08T17:25:01.344Z,14.84
2023-04-08T17:27:29.497Z,14.83
2023-04-08T17:29:58.032Z,14.79
2023-04-08T17:32:26.223Z,14.74
2023-04-08T17:34:54.591Z,14.69
2023-04-08T17:37:22.797Z,14.60
2023-04-08T17:39:52.179Z,14.60
2023-04-08T17:42:22.516Z,14.52
2023-04-08T17:44:50.705Z,14.49
2023-04-08T17:47:18.746Z,14.40
2023-04-08T17:49:47.030Z,14.34
2023-04-08T17:52:15.158Z,14.28
2023-04-08T17:54:43.167Z,14.22
2023-04-08T17:57:13.049Z,14.19
2023-04-08T17:59:41.242Z,14.11
2023-04-08T18:02:09.445Z,14.04
2023-04-08T18:04:38.314Z,13.95
2023-04-08T18:07:06.420Z,13.89
2023-04-08T18:09:34.530Z,13.85
2023-04-08T18:12:03.833Z,13.81
2023-04-08T18:14:33.452Z,13.78
2023-04-08T18:17:01.704Z,13.74
2023-04-08T18:19:30.065Z,13.70
2023-04-08T18:21:58.154Z,13.66
2023-04-08T18:24:26.404Z,13.66
2023-04-08T18:27:03.588Z,13.67
2023-04-08T18:29:34.692Z,13.61
2023-04-08T18:32:02.777Z,13.59
2023-04-08T18:34:32.118Z,13.55
2023-04-08T18:37:00.924Z,13.53
2023-04-08T18:39:28.905Z,13.46
2023-04-08T18:41:57.464Z,13.47
2023-04-08T18:44:25.672Z,13.37
2023-04-08T18:46:55.087Z,13.35
2023-04-08T18:49:23.455Z,13.34
2023-04-08T18:52:01.826Z,13.26
2023-04-08T18:54:30.872Z,13.20
2023-04-08T18:56:58.976Z,13.21
2023-04-08T18:59:28.525Z,13.21
2023-04-08T19:01:58.132Z,13.18
2023-04-08T19:04:26.441Z,13.18
2023-04-08T19:06:54.575Z,13.19
2023-04-08T19:09:22.648Z,13.19
2023-04-08T19:11:50.808Z,13.23
2023-04-08T19:14:18.968Z,13.22
2023-04-08T19:16:47.259Z,13.21
2023-04-08T19:19:16.812Z,13.23
2023-04-08T19:21:45.175Z,13.23
2023-04-08T19:24:13.256Z,13.25
2023-04-08T19:26:41.382Z,13.25
2023-04-08T19:29:11.981Z,13.21
2023-04-08T19:31:40.998Z,13.23
2023-04-08T19:34:09.005Z,13.21
2023-04-08T19:36:38.536Z,13.21
2023-04-08T19:39:06.950Z,13.23
2023-04-08T19:41:35.504Z,13.21
2023-04-08T19:44:03.614Z,13.18
2023-04-08T19:46:32.871Z,13.14
2023-04-08T19:49:00.943Z,13.11
2023-04-08T19:51:29.492Z,13.05
2023-04-08T19:53:59.061Z,13.00
2023-04-08T19:56:27.996Z,12.99
2023-04-08T19:58:56.134Z,12.96
2023-04-08T20:01:24.159Z,12.98
2023-04-08T20:03:52.699Z,12.96
2023-04-08T20:06:21.667Z,12.92
2023-04-08T20:08:51.007Z,12.85
2023-04-08T20:11:20.988Z,12.79
2023-04-08T20:13:51.419Z,12.70
2023-04-08T20:16:21.054Z,12.57
2023-04-08T20:18:49.463Z,12.47
2023-04-08T20:21:18.376Z,12.41
2023-04-08T20:23:46.427Z,12.40
2023-04-08T20:26:15.618Z,12.30
2023-04-08T20:28:46.292Z,12.21
2023-04-08T20:31:14.573Z,12.16
2023-04-08T20:33:45.525Z,12.05
2023-04-08T20:36:13.801Z,11.98
2023-04-08T20:38:42.781Z,11.99
2023-04-08T20:41:11.345Z,11.94
2023-04-08T20:43:40.432Z,11.88
2023-04-08T20:46:09.871Z,11.88
2023-04-08T20:48:37.916Z,11.87
2023-04-08T20:51:06.155Z,11.85
2023-04-08T20:53:34.652Z,11.79
2023-04-08T20:56:03.145Z,11.78
2023-04-08T20:58:31.414Z,11.75
2023-04-08T21:01:00.234Z,11.79
2023-04-08T21:03:29.763Z,11.79
2023-04-08T21:05:57.899Z,11.81
2023-04-08T21:08:26.021Z,11.81
2023-04-08T21:10:54.845Z,11.79
2023-04-08T21:13:22.954Z,11.81
2023-04-08T21:15:51.114Z,11.79
2023-04-08T21:18:19.167Z,11.78
2023-04-08T21:20:49.965Z,11.78
2023-04-08T21:23:18.026Z,11.77
2023-04-08T21:25:46.131Z,11.79
2023-04-08T21:28:14.238Z,11.79
2023-04-08T21:30:43.004Z,11.79
2023-04-08T21:33:11.137Z,11.75
2023-04-08T21:35:39.302Z,11.73
2023-04-08T21:38:08.881Z,11.73
2023-04-08T21:40:37.008Z,11.73
2023-04-08T21:43:05.135Z,11.67
2023-04-08T21:45:33.228Z,11.64
2023-04-08T21:48:01.459Z,11.58
2023-04-08T21:50:29.612Z,11.51
2023-04-08T21:52:57.591Z,11.47
2023-04-08T21:55:27.227Z,11.39
2023-04-08T21:57:55.333Z,11.33
2023-04-08T22:00:24.585Z,11.32
2023-04-08T22:02:52.892Z,11.33
2023-04-08T22:05:21.228Z,11.25
2023-04-08T22:07:49.382Z,11.22
2023-04-08T22:10:17.512Z,11.24
2023-04-08T22:12:47.043Z,11.16
2023-04-08T22:15:15.149Z,11.07
2023-04-08T22:17:43.290Z,11.09
2023-04-08T22:20:12.003Z,11.03
2023-04-08T22:22:40.128Z,11.01
2023-04-08T22:25:08.813Z,11.01
2023-04-08T22:27:37.418Z,11.00
2023-04-08T22:30:07.751Z,10.95
2023-04-08T22:32:35.912Z,10.91
2023-04-08T22:35:04.055Z,10.84
2023-04-08T22:37:32.643Z,10.84
2023-04-08T22:40:00.792Z,10.84
2023-04-08T22:42:29.043Z,10.74
2023-04-08T22:44:57.322Z,10.73
2023-04-08T22:47:26.801Z,10.70
2023-04-08T22:49:54.976Z,10.65
2023-04-08T22:52:23.003Z,10.63
2023-04-08T22:54:51.078Z,10.56
2023-04-08T22:57:19.164Z,10.53
2023-04-08T22:59:47.249Z,10.47
2023-04-08T23:02:15.902Z,10.45
2023-04-08T23:04:45.534Z,10.41
2023-04-08T23:07:13.593Z,10.41
2023-04-08T23:09:41.609Z,10.41
2023-04-08T23:12:09.674Z,10.43
2023-04-08T23:14:37.792Z,10.47
2023-04-08T23:17:05.780Z,10.51
2023-04-08T23:19:33.908Z,10.49
2023-04-08T23:22:03.340Z,10.49
2023-04-08T23:24:31.358Z,10.49
2023-04-08T23:26:59.393Z,10.50
2023-04-08T23:29:27.437Z,10.47
2023-04-08T23:31:55.532Z,10.42
2023-04-08T23:34:23.708Z,10.45
2023-04-08T23:36:51.768Z,10.46
2023-04-08T23:39:21.291Z,10.41
2023-04-08T23:41:49.455Z,10.43
2023-04-08T23:44:17.542Z,10.40
2023-04-08T23:46:45.603Z,10.42
2023-04-08T23:49:13.737Z,10.41
2023-04-08T23:51:41.851Z,10.35
2023-04-08T23:54:10.040Z,10.35
2023-04-08T23:56:41.333Z,10.37
2023-04-08T23:59:09.539Z,10.39
